Time;durP1;ratioP1;P1;durP2;ratioP2;P2;SDS_P1;SDS_P2;PMS_P1;PMS_P2;Temp;Humidity;BMP_temperature;BMP_pressure;BME280_temperature;BME280_humidity;BME280_pressure;Samples;Min_cycle;Max_cycle;Signal;HPM_P1;HPM_P2
2022/04/05 00:01:20;;;;;;;23.17;13.43;;;;;;;8.62;nan;-24057.88;4957152;28;20293;-72
2022/04/05 00:03:46;;;;;;;20.83;13.03;;;;;;;8.81;nan;-24063.09;4975110;28;20177;-73
2022/04/05 00:06:11;;;;;;;21.73;13.20;;;;;;;8.75;nan;-24061.41;4957473;28;20240;-74
2022/04/05 00:08:37;;;;;;;23.67;13.13;;;;;;;8.84;nan;-24064.09;4974651;28;20316;-73
2022/04/05 00:11:02;;;;;;;20.80;13.07;;;;;;;8.98;nan;-24067.75;4974901;28;20558;-73
2022/04/05 00:13:27;;;;;;;23.23;14.93;;;;;;;8.47;nan;-24053.63;4974882;28;20178;-73
2022/04/05 00:15:53;;;;;;;28.27;13.67;;;;;;;8.60;nan;-24057.28;4974279;28;20177;-72
2022/04/05 00:18:18;;;;;;;21.77;13.67;;;;;;;8.60;nan;-24057.28;4974917;28;20672;-72
2022/04/05 00:20:44;;;;;;;24.97;13.30;;;;;;;8.69;nan;-24059.84;4974547;28;20212;-74
2022/04/05 00:23:09;;;;;;;21.23;14.07;;;;;;;8.84;nan;-24063.94;4974772;28;20363;-72
2022/04/05 00:25:35;;;;;;;22.57;14.90;;;;;;;8.95;nan;-24066.91;4974518;28;20170;-73
2022/04/05 00:28:02;;;;;;;20.50;13.23;;;;;;;8.67;nan;-24059.13;4974401;28;20208;-73
2022/04/05 00:30:27;;;;;;;20.57;13.47;;;;;;;8.88;nan;-24064.94;4974291;28;20304;-74
2022/04/05 00:32:52;;;;;;;20.23;12.90;;;;;;;9.08;nan;-24070.72;4974361;28;20281;-74
2022/04/05 00:35:18;;;;;;;23.70;14.00;;;;;;;8.97;nan;-24067.47;4973918;28;20188;-74
2022/04/05 00:37:43;;;;;;;20.67;13.10;;;;;;;8.63;nan;-24058.16;4974310;28;20264;-73
2022/04/05 00:40:09;;;;;;;26.40;14.73;;;;;;;9.05;nan;-24069.75;4974578;28;20174;-74
2022/04/05 00:42:36;;;;;;;24.10;14.30;;;;;;;9.08;nan;-24070.59;4974148;28;20661;-73
2022/04/05 00:45:04;;;;;;;22.53;14.07;;;;;;;9.02;nan;-24068.91;4974241;28;20621;-72
2022/04/05 00:47:29;;;;;;;27.07;14.27;;;;;;;8.71;nan;-24060.25;4974378;28;20704;-70
2022/04/05 00:49:55;;;;;;;24.47;14.43;;;;;;;8.69;nan;-24059.84;4974160;28;20221;-73
2022/04/05 00:52:22;;;;;;;25.83;15.43;;;;;;;8.75;nan;-24061.53;4973911;28;20257;-73
2022/04/05 00:54:50;;;;;;;24.97;15.57;;;;;;;8.77;nan;-24061.97;4974071;28;20657;-73
2022/04/05 00:57:18;;;;;;;26.27;14.60;;;;;;;9.07;nan;-24070.31;4973580;28;20609;-73
2022/04/05 00:59:47;;;;;;;26.33;15.63;;;;;;;8.59;nan;-24057.00;4970072;28;20273;-73
2022/04/05 01:02:14;;;;;;;22.20;14.87;;;;;;;9.01;nan;-24068.63;4953840;28;20193;-72
2022/04/05 01:04:42;;;;;;;26.47;15.33;;;;;;;8.67;nan;-24059.28;4971407;28;20269;-73
2022/04/05 01:07:16;;;;;;;23.27;16.07;;;;;;;8.73;nan;-24060.97;4954574;29;20208;-72
2022/04/05 01:09:43;;;;;;;28.07;16.50;;;;;;;9.02;nan;-24069.03;4962607;28;20196;-73
2022/04/05 01:12:10;;;;;;;26.33;15.57;;;;;;;8.71;nan;-24060.25;4956028;28;20264;-72
2022/04/05 01:14:37;;;;;;;24.07;14.60;;;;;;;9.21;nan;-24074.25;4974086;28;20275;-73
2022/04/05 01:17:03;;;;;;;25.87;14.87;;;;;;;8.90;nan;-24065.50;4973925;28;20184;-73
2022/04/05 01:19:30;;;;;;;22.07;14.13;;;;;;;9.20;nan;-24074.00;4973514;28;20656;-73
2022/04/05 01:21:56;;;;;;;22.00;15.17;;;;;;;9.26;nan;-24075.69;4973613;28;20188;-74
2022/04/05 01:24:22;;;;;;;25.57;15.10;;;;;;;9.15;nan;-24072.56;4973445;28;20173;-73
2022/04/05 01:26:50;;;;;;;22.63;13.73;;;;;;;9.12;nan;-24071.88;4973177;28;20197;-73
2022/04/05 01:29:18;;;;;;;24.33;14.40;;;;;;;8.62;nan;-24057.88;4973655;28;20720;-73
2022/04/05 01:31:49;;;;;;;22.87;15.00;;;;;;;8.84;nan;-24064.09;4973399;28;20227;-74
2022/04/05 01:34:19;;;;;;;20.50;14.37;;;;;;;8.72;nan;-24060.56;4973089;28;20687;-72
2022/04/05 01:36:49;;;;;;;28.93;15.57;;;;;;;8.86;nan;-24064.66;4973317;28;20186;-73
2022/04/05 01:39:15;;;;;;;25.50;15.07;;;;;;;8.76;nan;-24061.69;4972861;28;20593;-73
2022/04/05 01:41:41;;;;;;;27.37;15.17;;;;;;;9.13;nan;-24072.16;4973212;28;20184;-73
2022/04/05 01:44:07;;;;;;;22.37;15.17;;;;;;;8.85;nan;-24064.38;4973070;28;20650;-74
2022/04/05 01:46:33;;;;;;;23.83;15.20;;;;;;;9.13;nan;-24072.00;4969399;28;20196;-73
2022/04/05 01:48:59;;;;;;;23.93;15.43;;;;;;;8.98;nan;-24067.91;4953351;28;20220;-73
2022/04/05 01:51:24;;;;;;;23.53;15.17;;;;;;;9.03;nan;-24069.19;4951942;29;20764;-74
2022/04/05 01:53:49;;;;;;;21.43;14.10;;;;;;;8.95;nan;-24066.91;4953293;28;20239;-73
2022/04/05 01:56:15;;;;;;;23.40;14.30;;;;;;;9.05;nan;-24069.75;4953707;29;20181;-72
2022/04/05 01:58:41;;;;;;;25.07;14.93;;;;;;;8.97;nan;-24067.63;4953560;28;20217;-72
2022/04/05 02:01:06;;;;;;;26.23;15.57;;;;;;;9.19;nan;-24073.72;4953117;28;20186;-73
2022/04/05 02:03:32;;;;;;;22.30;14.67;;;;;;;8.88;nan;-24065.22;4952035;29;20177;-74
2022/04/05 02:05:58;;;;;;;23.00;13.77;;;;;;;9.34;nan;-24077.81;4953454;28;20559;-72
2022/04/05 02:08:23;;;;;;;20.37;13.70;;;;;;;9.26;nan;-24075.69;4953033;28;20194;-72
2022/04/05 02:10:49;;;;;;;20.40;13.37;;;;;;;9.33;nan;-24077.66;4953641;28;20584;-73
2022/04/05 02:13:15;;;;;;;20.63;12.97;;;;;;;8.98;nan;-24067.75;4953052;29;20182;-73
2022/04/05 02:15:40;;;;;;;19.73;12.77;;;;;;;9.09;nan;-24071.03;4953130;28;20657;-74
2022/04/05 02:18:06;;;;;;;17.03;12.30;;;;;;;9.22;nan;-24074.56;4952864;28;20769;-74
2022/04/05 02:20:32;;;;;;;20.47;12.57;;;;;;;9.30;nan;-24076.81;4952101;29;20628;-73
2022/04/05 02:22:57;;;;;;;19.10;12.80;;;;;;;9.24;nan;-24075.25;4953335;28;20174;-73
2022/04/05 02:25:24;;;;;;;19.67;12.77;;;;;;;9.45;nan;-24081.06;4953809;28;20170;-74
2022/04/05 02:27:49;;;;;;;20.73;13.60;;;;;;;9.12;nan;-24071.72;4953418;28;20206;-72
2022/04/05 02:30:14;;;;;;;20.20;13.00;;;;;;;9.06;nan;-24070.16;4953256;29;20174;-73
2022/04/05 02:32:40;;;;;;;19.23;12.07;;;;;;;9.24;nan;-24075.13;4953331;29;20245;-73
2022/04/05 02:35:08;;;;;;;19.87;12.57;;;;;;;9.23;nan;-24074.84;4953126;28;20646;-74
2022/04/05 02:37:34;;;;;;;19.67;12.57;;;;;;;9.28;nan;-24076.38;4953156;28;20181;-73
2022/04/05 02:39:59;;;;;;;19.63;13.10;;;;;;;9.22;nan;-24074.69;4953381;28;20179;-73
2022/04/05 02:42:25;;;;;;;22.77;13.77;;;;;;;9.15;nan;-24072.56;4953450;29;20163;-71
2022/04/05 02:44:50;;;;;;;20.77;13.70;;;;;;;9.03;nan;-24069.31;4953492;28;20182;-73
2022/04/05 02:47:16;;;;;;;21.07;14.23;;;;;;;9.02;nan;-24069.03;4953080;29;20205;-71
2022/04/05 02:49:41;;;;;;;27.60;14.17;;;;;;;8.92;nan;-24066.06;4952832;29;20226;-71
2022/04/05 02:52:07;;;;;;;25.00;14.70;;;;;;;8.82;nan;-24063.53;4952869;29;20264;-72
2022/04/05 02:54:32;;;;;;;25.43;14.73;;;;;;;8.85;nan;-24064.22;4953381;29;20182;-72
2022/04/05 02:56:58;;;;;;;27.50;14.23;;;;;;;9.24;nan;-24075.13;4953406;28;20186;-72
2022/04/05 02:59:23;;;;;;;22.00;13.90;;;;;;;9.31;nan;-24077.25;4955274;29;20197;-72
2022/04/05 03:01:49;;;;;;;23.23;14.27;;;;;;;9.07;nan;-24070.31;4954837;29;20197;-72
2022/04/05 03:04:15;;;;;;;22.57;14.03;;;;;;;8.95;nan;-24066.91;4953594;29;20269;-74
2022/04/05 03:06:41;;;;;;;21.70;14.10;;;;;;;9.16;nan;-24073.00;4952352;28;20645;-72
2022/04/05 03:09:07;;;;;;;22.87;14.60;;;;;;;9.10;nan;-24071.31;4977825;28;20297;-74
2022/04/05 03:11:32;;;;;;;26.70;13.77;;;;;;;9.18;nan;-24073.56;4943827;29;20244;-74
2022/04/05 03:13:58;;;;;;;23.77;14.90;;;;;;;8.95;nan;-24066.91;4952521;29;20273;-74
2022/04/05 03:16:24;;;;;;;19.30;12.83;;;;;;;8.84;nan;-24063.94;4958725;28;20190;-74
2022/04/05 03:18:50;;;;;;;18.30;12.43;;;;;;;8.74;nan;-24061.13;4956588;29;20182;-73
2022/04/05 03:21:16;;;;;;;20.17;12.47;;;;;;;9.19;nan;-24073.72;4950679;28;20212;-73
2022/04/05 03:23:41;;;;;;;19.93;12.97;;;;;;;9.12;nan;-24071.88;4950068;29;20193;-72
2022/04/05 03:26:07;;;;;;;17.87;11.03;;;;;;;8.93;nan;-24066.50;4948637;28;20200;-73
2022/04/05 03:28:32;;;;;;;18.77;11.90;;;;;;;9.36;nan;-24078.50;4950144;28;20582;-73
2022/04/05 03:30:58;;;;;;;22.87;11.67;;;;;;;9.03;nan;-24069.19;4949759;28;20262;-72
2022/04/05 03:33:23;;;;;;;21.80;11.80;;;;;;;9.13;nan;-24072.00;4949758;29;20269;-73
2022/04/05 03:35:49;;;;;;;22.83;11.53;;;;;;;8.74;nan;-24061.13;4949818;29;20197;-74
2022/04/05 03:38:16;;;;;;;18.40;12.40;;;;;;;8.92;nan;-24066.06;4949259;28;20182;-73
2022/04/05 03:40:41;;;;;;;19.43;12.13;;;;;;;9.09;nan;-24070.88;4950092;28;20277;-73
2022/04/05 03:43:12;;;;;;;18.60;10.60;;;;;;;8.74;nan;-24061.25;4870000;29;20604;-73
2022/04/05 03:45:37;;;;;;;16.83;11.50;;;;;;;8.83;nan;-24063.66;4949408;29;20185;-72
2022/04/05 03:48:03;;;;;;;18.53;11.57;;;;;;;8.71;nan;-24060.41;4949789;28;20206;-73
2022/04/05 03:50:28;;;;;;;20.70;11.47;;;;;;;8.48;nan;-24053.75;4948890;29;20230;-72
2022/04/05 03:52:57;;;;;;;19.47;11.50;;;;;;;8.85;nan;-24064.38;4957057;28;20293;-71
2022/04/05 03:55:22;;;;;;;19.73;12.93;;;;;;;8.53;nan;-24055.31;4948676;28;20630;-73
2022/04/05 03:57:48;;;;;;;22.10;11.70;;;;;;;8.52;nan;-24055.03;4949469;28;20688;-73
2022/04/05 04:00:14;;;;;;;17.10;10.67;;;;;;;8.31;nan;-24049.22;4949169;28;20174;-73
2022/04/05 04:02:39;;;;;;;19.33;11.73;;;;;;;8.96;nan;-24067.19;4949059;29;20186;-72
2022/04/05 04:05:05;;;;;;;20.13;10.50;;;;;;;8.80;nan;-24062.94;4949305;29;20186;-73
2022/04/05 04:07:30;;;;;;;20.03;11.00;;;;;;;9.11;nan;-24071.44;4948246;28;20218;-71
2022/04/05 04:10:01;;;;;;;15.57;10.03;;;;;;;8.64;nan;-24058.44;4956189;28;20182;-74
2022/04/05 04:12:26;;;;;;;16.30;9.20;;;;;;;8.85;nan;-24064.38;4948435;29;20182;-72
2022/04/05 04:14:52;;;;;;;14.97;9.40;;;;;;;8.91;nan;-24065.78;4949130;29;20186;-72
2022/04/05 04:17:17;;;;;;;17.67;9.10;;;;;;;8.48;nan;-24053.91;4949150;29;20209;-73
2022/04/05 04:19:43;;;;;;;15.43;9.77;;;;;;;8.51;nan;-24054.59;4948456;29;20204;-72
2022/04/05 04:22:08;;;;;;;14.37;8.40;;;;;;;8.54;nan;-24055.47;4949274;28;20205;-72
2022/04/05 04:24:33;;;;;;;23.57;10.40;;;;;;;9.01;nan;-24068.63;4947964;29;20642;-72
2022/04/05 04:26:59;;;;;;;12.70;9.10;;;;;;;9.08;nan;-24070.59;4948410;29;20214;-70
2022/04/05 04:29:25;;;;;;;17.47;9.90;;;;;;;8.73;nan;-24060.84;4948750;29;20189;-73
2022/04/05 04:31:50;;;;;;;17.63;9.27;;;;;;;9.11;nan;-24071.44;4947439;29;20252;-73
2022/04/05 04:34:17;;;;;;;14.37;8.70;;;;;;;8.84;nan;-24064.09;4955407;28;20194;-72
2022/04/05 04:36:43;;;;;;;17.47;8.97;;;;;;;8.82;nan;-24063.38;4947944;28;20245;-73
2022/04/05 04:39:09;;;;;;;14.47;8.47;;;;;;;9.17;nan;-24073.13;4948355;29;20182;-73
2022/04/05 04:41:35;;;;;;;16.43;9.47;;;;;;;8.96;nan;-24067.34;4948544;29;20190;-72
2022/04/05 04:44:00;;;;;;;13.60;8.70;;;;;;;8.80;nan;-24062.94;4948441;28;20200;-73
2022/04/05 04:46:26;;;;;;;20.23;10.50;;;;;;;9.00;nan;-24068.34;4954276;29;20182;-73
2022/04/05 04:48:51;;;;;;;16.53;9.63;;;;;;;8.85;nan;-24064.22;4952887;28;20744;-75
2022/04/05 04:51:16;;;;;;;18.47;9.37;;;;;;;9.24;nan;-24075.25;4953677;29;20250;-73
2022/04/05 04:53:42;;;;;;;12.70;9.20;;;;;;;9.50;nan;-24082.47;4954467;29;20185;-74
2022/04/05 04:56:08;;;;;;;15.17;8.80;;;;;;;9.68;nan;-24087.56;4954638;28;20653;-73
2022/04/05 04:58:33;;;;;;;14.87;8.97;;;;;;;9.39;nan;-24079.34;4954538;29;20229;-77
2022/04/05 05:00:59;;;;;;;16.93;9.07;;;;;;;9.77;nan;-24089.94;4953102;29;20186;-73
2022/04/05 05:03:24;;;;;;;14.30;8.23;;;;;;;9.90;nan;-24093.47;4952820;29;20228;-74
2022/04/05 05:05:50;;;;;;;13.07;8.83;;;;;;;9.95;nan;-24094.91;4954161;29;20170;-76
2022/04/05 05:08:15;;;;;;;13.90;8.10;;;;;;;9.98;nan;-24095.75;4954062;29;20256;-74
2022/04/05 05:10:41;;;;;;;12.67;8.07;;;;;;;10.04;nan;-24097.59;4954305;29;20181;-76
2022/04/05 05:13:06;;;;;;;13.77;8.50;;;;;;;9.81;nan;-24091.09;4956133;29;20189;-75
2022/04/05 05:15:31;;;;;;;16.80;8.93;;;;;;;10.20;nan;-24101.97;4957735;29;20189;-74
2022/04/05 05:17:57;;;;;;;24.33;8.73;;;;;;;10.29;nan;-24104.50;4953471;29;20182;-75
2022/04/05 05:20:22;;;;;;;14.23;7.47;;;;;;;10.31;nan;-24105.06;4953199;28;20181;-75
2022/04/05 05:22:48;;;;;;;12.23;8.30;;;;;;;10.28;nan;-24104.22;4953775;29;20275;-75
2022/04/05 05:25:14;;;;;;;16.60;9.70;;;;;;;10.29;nan;-24104.50;4954027;29;20173;-73
2022/04/05 05:27:40;;;;;;;17.60;8.80;;;;;;;9.91;nan;-24093.91;4953415;29;20190;-73
2022/04/05 05:30:08;;;;;;;16.60;9.83;;;;;;;10.47;nan;-24109.59;4953425;29;20182;-74
2022/04/05 05:32:42;;;;;;;17.37;8.67;;;;;;;10.35;nan;-24106.06;4953449;29;20182;-74
2022/04/05 05:35:08;;;;;;;12.40;8.27;;;;;;;10.06;nan;-24098.16;4952285;29;20689;-74
2022/04/05 05:37:33;;;;;;;15.87;8.17;;;;;;;10.40;nan;-24107.47;4952242;29;20182;-76
2022/04/05 05:39:59;;;;;;;14.20;8.50;;;;;;;10.99;nan;-24123.97;4953408;29;20176;-74
2022/04/05 05:42:24;;;;;;;17.30;8.40;;;;;;;11.06;nan;-24126.09;4953194;29;20178;-71
2022/04/05 05:44:50;;;;;;;16.33;8.50;;;;;;;11.24;nan;-24130.88;4953733;29;20166;-75
2022/04/05 05:47:15;;;;;;;14.55;8.50;;;;;;;11.02;nan;-24124.81;4953808;29;20728;-74
2022/04/05 05:49:40;;;;;;;13.10;8.27;;;;;;;11.55;nan;-24139.47;4953687;29;20228;-73
2022/04/05 05:52:06;;;;;;;15.25;9.18;;;;;;;11.45;nan;-24136.81;4953642;29;20171;-72
2022/04/05 05:54:32;;;;;;;24.05;9.10;;;;;;;11.59;nan;-24140.75;4954205;29;20221;-74
2022/04/05 05:56:57;;;;;;;14.38;8.60;;;;;;;11.67;nan;-24142.84;4953844;29;20617;-72
2022/04/05 05:59:24;;;;;;;14.48;8.60;;;;;;;11.94;nan;-24150.59;4953475;29;20225;-75
2022/04/05 06:01:49;;;;;;;15.48;9.10;;;;;;;11.70;nan;-24143.84;4935989;29;20174;-73
2022/04/05 06:04:15;;;;;;;15.40;9.07;;;;;;;12.10;nan;-24154.81;4936420;29;20267;-76
2022/04/05 06:06:40;;;;;;;18.67;9.63;;;;;;;11.90;nan;-24149.34;4953255;29;20186;-75
2022/04/05 06:09:06;;;;;;;21.55;10.90;;;;;;;11.98;nan;-24151.59;4953694;29;20178;-73
2022/04/05 06:11:32;;;;;;;21.52;10.80;;;;;;;11.84;nan;-24147.66;4936227;29;20616;-74
2022/04/05 06:13:57;;;;;;;25.10;12.45;;;;;;;12.55;nan;-24167.34;4953779;29;20197;-73
2022/04/05 06:16:22;;;;;;;28.92;13.65;;;;;;;11.92;nan;-24149.91;4953417;29;20562;-75
2022/04/05 06:18:48;;;;;;;28.92;14.77;;;;;;;11.82;nan;-24147.22;4953768;29;20182;-73
2022/04/05 06:21:14;;;;;;;31.17;17.08;;;;;;;12.18;nan;-24157.22;4953373;29;20676;-73
2022/04/05 06:23:40;;;;;;;30.27;17.40;;;;;;;12.33;nan;-24161.31;4953360;29;20229;-76
2022/04/05 06:26:06;;;;;;;31.95;17.40;;;;;;;12.17;nan;-24156.94;4953191;28;20170;-74
2022/04/05 06:28:31;;;;;;;29.35;16.33;;;;;;;12.43;nan;-24163.97;4953206;29;20205;-75
2022/04/05 06:30:57;;;;;;;32.22;18.30;;;;;;;12.24;nan;-24158.91;4953299;28;20184;-75
2022/04/05 06:33:22;;;;;;;29.48;15.55;;;;;;;11.97;nan;-24151.31;4956954;28;20175;-73
2022/04/05 06:35:50;;;;;;;33.75;16.80;;;;;;;12.55;nan;-24167.34;4957435;28;20652;-75
2022/04/05 06:38:16;;;;;;;27.17;16.30;;;;;;;12.47;nan;-24165.09;4957624;28;20171;-73
2022/04/05 06:40:43;;;;;;;30.80;16.83;;;;;;;12.49;nan;-24165.66;4957049;28;20184;-74
2022/04/05 06:43:09;;;;;;;24.67;16.05;;;;;;;12.63;nan;-24169.75;4957150;28;20205;-76
2022/04/05 06:45:35;;;;;;;33.30;16.80;;;;;;;13.05;nan;-24181.28;4957136;28;20569;-75
2022/04/05 06:48:00;;;;;;;28.20;16.50;;;;;;;13.08;nan;-24182.13;4957334;28;20197;-74
2022/04/05 06:50:26;;;;;;;37.50;17.20;;;;;;;12.70;nan;-24171.72;4955413;29;20312;-74
2022/04/05 06:52:53;;;;;;;30.95;17.58;;;;;;;13.05;nan;-24181.28;4956770;28;20178;-75
2022/04/05 06:55:19;;;;;;;31.85;17.10;;;;;;;13.20;nan;-24185.50;4957168;28;20208;-74
2022/04/05 06:57:45;;;;;;;37.03;17.85;;;;;;;13.24;nan;-24186.75;4956627;28;20202;-73
2022/04/05 07:00:12;;;;;;;29.00;16.08;;;;;;;13.17;nan;-24184.78;4955398;28;20182;-75
2022/04/05 07:02:39;;;;;;;29.88;16.63;;;;;;;12.50;nan;-24166.09;4955952;29;20190;-74
2022/04/05 07:05:06;;;;;;;28.67;17.35;;;;;;;12.51;nan;-24166.22;4955796;28;20190;-75
2022/04/05 07:07:32;;;;;;;31.85;16.92;;;;;;;12.45;nan;-24164.69;4956491;28;20256;-75
2022/04/05 07:09:57;;;;;;;30.75;17.10;;;;;;;12.59;nan;-24168.47;4956027;28;20190;-76
2022/04/05 07:12:26;;;;;;;26.50;16.83;;;;;;;12.56;nan;-24167.78;4956262;29;20181;-74
2022/04/05 07:14:51;;;;;;;32.72;17.42;;;;;;;12.77;nan;-24173.69;4956305;28;20715;-74
2022/04/05 07:17:18;;;;;;;30.45;17.65;;;;;;;13.00;nan;-24180.00;4504847;29;21125;-75
2022/04/05 07:19:43;;;;;;;36.40;16.92;;;;;;;13.59;nan;-24196.31;4717923;28;20284;-75
2022/04/05 07:22:09;;;;;;;25.77;16.40;;;;;;;13.76;nan;-24201.09;4956034;29;20273;-74
2022/04/05 07:24:34;;;;;;;38.00;18.25;;;;;;;14.42;nan;-24219.31;4955770;28;20178;-75
2022/04/05 07:26:59;;;;;;;31.60;16.35;;;;;;;14.78;nan;-24229.41;4972905;28;20182;-74
2022/04/05 07:29:25;;;;;;;29.42;16.55;;;;;;;15.01;nan;-24235.88;4956182;29;20282;-74
2022/04/05 07:31:50;;;;;;;28.98;15.73;;;;;;;15.11;nan;-24238.53;4956161;29;20194;-75
2022/04/05 07:34:16;;;;;;;33.90;16.38;;;;;;;15.23;nan;-24241.88;4955956;28;20242;-74
2022/04/05 07:36:41;;;;;;;25.90;15.30;;;;;;;15.26;nan;-24242.72;4955261;29;20194;-73
2022/04/05 07:39:07;;;;;;;30.30;15.15;;;;;;;15.62;nan;-24252.53;4953936;29;20666;-75
2022/04/05 07:41:32;;;;;;;27.73;15.10;;;;;;;15.67;nan;-24254.06;4955118;29;20654;-76
2022/04/05 07:43:57;;;;;;;25.67;15.13;;;;;;;16.03;nan;-24263.88;4955266;28;20224;-74
2022/04/05 07:46:23;;;;;;;18.60;12.93;;;;;;;16.64;nan;-24280.94;4955665;29;20182;-74
2022/04/05 07:48:48;;;;;;;23.70;13.70;;;;;;;16.54;nan;-24278.13;4955842;29;20558;-75
2022/04/05 07:51:15;;;;;;;19.65;13.68;;;;;;;16.74;nan;-24283.72;4972360;28;20324;-76
2022/04/05 07:53:41;;;;;;;26.67;13.52;;;;;;;16.66;nan;-24281.34;4974970;28;20184;-74
2022/04/05 07:56:08;;;;;;;24.55;13.70;;;;;;;16.34;nan;-24272.69;4974938;28;20206;-74
2022/04/05 07:58:33;;;;;;;27.58;14.05;;;;;;;16.35;nan;-24272.81;4972023;28;20193;-75
2022/04/05 08:00:59;;;;;;;21.08;14.80;;;;;;;16.29;nan;-24271.13;4954583;28;20198;-76
2022/04/05 08:03:25;;;;;;;21.65;14.13;;;;;;;16.13;nan;-24266.81;4969341;28;20196;-76
2022/04/05 08:05:50;;;;;;;19.52;13.70;;;;;;;15.89;nan;-24260.22;4959387;28;20186;-75
2022/04/05 08:08:16;;;;;;;23.98;14.57;;;;;;;16.14;nan;-24266.94;4956804;28;20280;-74
2022/04/05 08:10:41;;;;;;;24.95;14.63;;;;;;;16.10;nan;-24265.81;4974404;28;20205;-76
2022/04/05 08:13:07;;;;;;;24.42;13.25;;;;;;;16.27;nan;-24270.59;4974952;28;20169;-74
2022/04/05 08:15:32;;;;;;;21.95;13.73;;;;;;;16.82;nan;-24285.81;4974776;28;20566;-74
2022/04/05 08:17:57;;;;;;;20.30;12.73;;;;;;;16.49;nan;-24276.72;4975630;28;20223;-75
2022/04/05 08:20:23;;;;;;;22.73;12.45;;;;;;;16.76;nan;-24284.28;4975689;28;20204;-74
2022/04/05 08:22:49;;;;;;;23.33;11.48;;;;;;;16.63;nan;-24280.66;4974862;28;20178;-75
2022/04/05 08:25:16;;;;;;;20.77;11.25;;;;;;;16.20;nan;-24268.63;4974473;28;20261;-76
2022/04/05 08:27:43;;;;;;;17.75;10.27;;;;;;;16.39;nan;-24273.78;4974492;28;20681;-76
2022/04/05 08:30:10;;;;;;;22.98;10.80;;;;;;;16.74;nan;-24283.59;4974857;28;20192;-76
2022/04/05 08:32:42;;;;;;;17.60;11.00;;;;;;;16.58;nan;-24279.13;4974601;28;20173;-75
2022/04/05 08:35:08;;;;;;;18.25;10.48;;;;;;;16.35;nan;-24272.97;4966840;28;20177;-77
2022/04/05 08:37:33;;;;;;;19.02;10.27;;;;;;;16.46;nan;-24275.88;4954512;28;20616;-75
2022/04/05 08:40:00;;;;;;;15.55;9.68;;;;;;;16.64;nan;-24280.94;4954740;28;20178;-75
2022/04/05 08:42:25;;;;;;;16.42;9.65;;;;;;;16.53;nan;-24277.84;4954929;28;20158;-77
2022/04/05 08:44:51;;;;;;;17.02;9.20;;;;;;;16.24;nan;-24269.75;4954720;28;20177;-76
2022/04/05 08:47:21;;;;;;;15.07;10.02;;;;;;;15.99;nan;-24262.75;4954414;28;20205;-77
2022/04/05 08:49:49;;;;;;;25.92;9.65;;;;;;;16.64;nan;-24280.94;4954544;28;20253;-76
2022/04/05 08:52:15;;;;;;;14.38;9.02;;;;;;;16.32;nan;-24271.97;4954706;29;20170;-76
2022/04/05 08:54:40;;;;;;;15.70;8.15;;;;;;;15.48;nan;-24248.75;4953954;28;20200;-75
2022/04/05 08:57:06;;;;;;;9.90;8.30;;;;;;;15.36;nan;-24245.53;4954307;29;20539;-74
2022/04/05 08:59:31;;;;;;;10.48;7.80;;;;;;;14.79;nan;-24229.56;4937080;29;20622;-76
2022/04/05 09:01:58;;;;;;;11.40;8.18;;;;;;;14.99;nan;-24235.16;4953690;29;20244;-74
2022/04/05 09:04:23;;;;;;;12.52;8.38;;;;;;;14.90;nan;-24232.63;4954421;28;20186;-76
2022/04/05 09:06:49;;;;;;;14.15;8.07;;;;;;;14.90;nan;-24232.78;4953589;28;20233;-75
2022/04/05 09:09:18;;;;;;;14.38;9.55;;;;;;;15.27;nan;-24243.00;4953070;29;20737;-74
2022/04/05 09:11:43;;;;;;;14.50;10.40;;;;;;;15.49;nan;-24249.03;4953474;29;20269;-74
2022/04/05 09:14:09;;;;;;;14.32;9.27;;;;;;;15.93;nan;-24261.22;4953912;29;20229;-74
2022/04/05 09:16:35;;;;;;;12.88;8.63;;;;;;;16.09;nan;-24265.69;4952888;29;20593;-74
2022/04/05 09:19:10;;;;;;;13.98;9.35;;;;;;;16.35;nan;-24272.81;4954335;29;20688;-74
2022/04/05 09:21:57;;;;;;;11.88;8.13;;;;;;;15.91;nan;-24260.66;4947086;29;20181;-75
2022/04/05 09:24:35;;;;;;;13.20;8.70;;;;;;;15.86;nan;-24259.38;4948275;29;20173;-76
2022/04/05 09:27:01;;;;;;;13.55;8.65;;;;;;;16.11;nan;-24266.09;4937309;29;20182;-74
2022/04/05 09:29:43;;;;;;;11.75;8.57;;;;;;;16.26;nan;-24270.31;4953673;29;20193;-76
2022/04/05 09:32:09;;;;;;;10.93;8.45;;;;;;;15.90;nan;-24260.38;4953654;28;20178;-74
2022/04/05 09:34:51;;;;;;;13.80;7.90;;;;;;;16.19;nan;-24268.47;4954069;29;20210;-74
2022/04/05 09:37:24;;;;;;;11.32;7.95;;;;;;;16.48;nan;-24276.44;4947111;29;20252;-74
2022/04/05 09:39:50;;;;;;;12.98;8.82;;;;;;;16.34;nan;-24272.53;4953916;28;20181;-77
2022/04/05 09:42:15;;;;;;;14.18;8.30;;;;;;;16.54;nan;-24278.13;4953877;28;20174;-74
2022/04/05 09:44:44;;;;;;;12.82;8.90;;;;;;;16.86;nan;-24286.78;4953948;29;20189;-74
2022/04/05 09:47:16;;;;;;;14.27;9.80;;;;;;;16.95;nan;-24289.31;4953866;28;20579;-76
2022/04/05 09:49:43;;;;;;;15.18;9.18;;;;;;;16.85;nan;-24286.66;4957749;28;20221;-73
2022/04/05 09:52:39;;;;;;;17.27;9.48;;;;;;;16.67;nan;-24281.78;4973194;28;20177;-76
2022/04/05 09:55:10;;;;;;;13.77;9.25;;;;;;;16.77;nan;-24284.56;4955317;28;20645;-73
2022/04/05 09:57:37;;;;;;;14.60;9.57;;;;;;;16.35;nan;-24272.81;4973246;28;20173;-74
2022/04/05 10:00:12;;;;;;;13.55;8.93;;;;;;;16.26;nan;-24270.31;4973069;28;20185;-76
2022/04/05 10:02:59;;;;;;;15.25;9.80;;;;;;;16.73;nan;-24283.44;4973368;28;20173;-76
2022/04/05 10:05:25;;;;;;;13.85;8.65;;;;;;;16.94;nan;-24289.03;4955425;28;20177;-77
2022/04/05 10:07:52;;;;;;;17.52;9.32;;;;;;;16.89;nan;-24287.78;4972415;28;20244;-74
2022/04/05 10:10:19;;;;;;;14.80;8.88;;;;;;;16.81;nan;-24285.41;4956093;28;20236;-76
2022/04/05 10:12:47;;;;;;;12.57;9.00;;;;;;;16.68;nan;-24281.91;4972729;28;20173;-74
2022/04/05 10:15:12;;;;;;;16.98;10.43;;;;;;;16.74;nan;-24283.72;4972665;28;20189;-76
2022/04/05 10:17:43;;;;;;;13.10;9.50;;;;;;;16.97;nan;-24290.00;4972875;28;20228;-75
2022/04/05 10:20:11;;;;;;;14.48;10.88;;;;;;;16.51;nan;-24277.16;4955384;28;20190;-74
2022/04/05 10:22:39;;;;;;;16.77;10.85;;;;;;;17.00;nan;-24290.84;4973992;28;20162;-74
2022/04/05 10:25:05;;;;;;;14.95;10.80;;;;;;;16.94;nan;-24289.16;4973312;28;20260;-74
2022/04/05 10:27:31;;;;;;;18.55;10.98;;;;;;;16.90;nan;-24287.91;4972895;28;20212;-74
2022/04/05 10:30:15;;;;;;;17.17;11.52;;;;;;;16.60;nan;-24279.66;4973007;28;20181;-76
2022/04/05 10:33:04;;;;;;;17.48;12.07;;;;;;;16.81;nan;-24285.41;4973233;28;20291;-75
2022/04/05 10:35:31;;;;;;;19.55;11.82;;;;;;;16.46;nan;-24275.75;4972723;28;20239;-74
2022/04/05 10:38:14;;;;;;;20.27;11.20;;;;;;;16.64;nan;-24280.94;4972674;28;20177;-76
2022/04/05 10:40:40;;;;;;;18.33;11.05;;;;;;;16.46;nan;-24275.88;4972426;28;20174;-76
2022/04/05 10:43:19;;;;;;;19.15;11.18;;;;;;;17.12;nan;-24294.06;4964696;28;20182;-75
2022/04/05 10:45:46;;;;;;;16.35;11.27;;;;;;;16.90;nan;-24287.91;4957872;28;20173;-74
2022/04/05 10:48:20;;;;;;;15.75;11.32;;;;;;;16.85;nan;-24286.66;4962588;28;20248;-75
2022/04/05 10:51:00;;;;;;;17.27;10.02;;;;;;;16.94;nan;-24289.03;4953107;29;20695;-77
2022/04/05 10:53:37;;;;;;;23.23;11.10;;;;;;;16.21;nan;-24268.91;4951641;29;20186;-73
2022/04/05 10:56:02;;;;;;;20.80;11.38;;;;;;;16.24;nan;-24269.88;4950232;29;20177;-74
2022/04/05 10:58:28;;;;;;;16.08;11.77;;;;;;;16.21;nan;-24269.03;4652073;29;21078;-74
2022/04/05 11:01:11;;;;;;;18.55;11.15;;;;;;;16.13;nan;-24266.66;4951476;29;20186;-75
2022/04/05 11:03:37;;;;;;;19.63;10.65;;;;;;;16.50;nan;-24276.88;4953087;28;20260;-74
2022/04/05 11:06:03;;;;;;;23.05;10.70;;;;;;;16.72;nan;-24283.16;4953103;29;20642;-75
2022/04/05 11:08:30;;;;;;;15.02;10.18;;;;;;;16.78;nan;-24284.84;4952887;29;20209;-74
2022/04/05 11:11:00;;;;;;;16.98;11.45;;;;;;;16.85;nan;-24286.50;4951623;29;20186;-74
2022/04/05 11:13:31;;;;;;;15.00;9.73;;;;;;;16.58;nan;-24279.13;4952966;28;20566;-75
2022/04/05 11:15:58;;;;;;;15.75;10.52;;;;;;;15.93;nan;-24261.22;4951493;29;20277;-75
2022/04/05 11:18:26;;;;;;;18.95;11.05;;;;;;;15.68;nan;-24254.34;4952782;28;20677;-73
2022/04/05 11:20:53;;;;;;;18.38;10.32;;;;;;;15.58;nan;-24251.56;4956357;28;20178;-76
2022/04/05 11:23:20;;;;;;;16.58;10.10;;;;;;;15.32;nan;-24244.28;4956679;28;20210;-73
2022/04/05 11:25:47;;;;;;;18.20;10.88;;;;;;;15.89;nan;-24260.09;4957391;29;20170;-75
2022/04/05 11:28:15;;;;;;;14.65;9.65;;;;;;;15.96;nan;-24261.91;4956378;28;20205;-74
2022/04/05 11:30:49;;;;;;;15.70;8.93;;;;;;;16.40;nan;-24274.22;4955993;28;20237;-75